sensor_id;sensor_type;location;lat;lon;timestamp;pressure;altitude;pressure_sealevel;temperature;humidity
74529;BME280;63009;52.584;5.932;2023-01-10T00:00:27;101077.28;;;5.11;97.07
74529;BME280;63009;52.584;5.932;2023-01-10T00:02:56;101076.34;;;5.13;97.09
74529;BME280;63009;52.584;5.932;2023-01-10T00:05:21;101039.13;;;5.02;96.43
74529;BME280;63009;52.584;5.932;2023-01-10T00:07:47;101075.22;;;5.20;96.67
74529;BME280;63009;52.584;5.932;2023-01-10T00:10:12;101080.44;;;5.20;96.32
74529;BME280;63009;52.584;5.932;2023-01-10T00:12:38;101092.56;;;5.24;97.01
74529;BME280;63009;52.584;5.932;2023-01-10T00:15:22;101089.91;;;5.26;96.71
74529;BME280;63009;52.584;5.932;2023-01-10T00:17:47;101095.88;;;5.29;95.87
74529;BME280;63009;52.584;5.932;2023-01-10T00:20:13;101104.56;;;5.31;96.20
74529;BME280;63009;52.584;5.932;2023-01-10T00:22:39;101101.19;;;5.28;96.33
74529;BME280;63009;52.584;5.932;2023-01-10T00:25:04;101101.97;;;5.30;96.16
74529;BME280;63009;52.584;5.932;2023-01-10T00:27:30;101096.22;;;5.19;95.88
74529;BME280;63009;52.584;5.932;2023-01-10T00:29:55;101120.22;;;5.33;95.66
74529;BME280;63009;52.584;5.932;2023-01-10T00:32:22;101129.00;;;5.32;95.77
74529;BME280;63009;52.584;5.932;2023-01-10T00:34:47;101128.88;;;5.36;95.66
74529;BME280;63009;52.584;5.932;2023-01-10T00:37:13;101144.66;;;5.35;95.53
74529;BME280;63009;52.584;5.932;2023-01-10T00:39:39;101143.69;;;5.38;95.85
74529;BME280;63009;52.584;5.932;2023-01-10T00:42:04;101151.66;;;5.33;95.36
74529;BME280;63009;52.584;5.932;2023-01-10T00:44:48;101151.66;;;5.33;95.77
74529;BME280;63009;52.584;5.932;2023-01-10T00:47:14;101154.22;;;5.36;95.89
74529;BME280;63009;52.584;5.932;2023-01-10T00:49:39;101163.84;;;5.35;95.69
74529;BME280;63009;52.584;5.932;2023-01-10T00:52:05;101160.09;;;5.43;94.76
74529;BME280;63009;52.584;5.932;2023-01-10T00:54:30;101157.44;;;5.44;95.10
74529;BME280;63009;52.584;5.932;2023-01-10T00:56:56;101147.28;;;5.33;94.50
74529;BME280;63009;52.584;5.932;2023-01-10T00:59:22;101156.72;;;5.39;94.90
74529;BME280;63009;52.584;5.932;2023-01-10T01:01:48;101163.59;;;5.43;95.30
74529;BME280;63009;52.584;5.932;2023-01-10T01:04:13;101158.56;;;5.37;95.47
74529;BME280;63009;52.584;5.932;2023-01-10T01:06:38;101167.13;;;5.42;95.20
74529;BME280;63009;52.584;5.932;2023-01-10T01:09:03;101160.16;;;5.41;95.08
74529;BME280;63009;52.584;5.932;2023-01-10T01:11:29;101179.13;;;5.49;95.28
74529;BME280;63009;52.584;5.932;2023-01-10T01:13:54;101180.00;;;5.48;95.44
74529;BME280;63009;52.584;5.932;2023-01-10T01:16:19;101195.16;;;5.40;95.71
74529;BME280;63009;52.584;5.932;2023-01-10T01:18:45;101179.56;;;5.35;95.89
74529;BME280;63009;52.584;5.932;2023-01-10T01:21:10;101189.16;;;5.36;95.45
74529;BME280;63009;52.584;5.932;2023-01-10T01:23:35;101189.03;;;5.40;96.06
74529;BME280;63009;52.584;5.932;2023-01-10T01:26:01;101187.38;;;5.37;96.01
74529;BME280;63009;52.584;5.932;2023-01-10T01:28:27;101206.47;;;5.41;96.02
74529;BME280;63009;52.584;5.932;2023-01-10T01:30:52;101208.25;;;5.40;95.88
74529;BME280;63009;52.584;5.932;2023-01-10T01:33:18;101210.91;;;5.39;95.77
74529;BME280;63009;52.584;5.932;2023-01-10T01:35:45;101202.19;;;5.38;95.78
74529;BME280;63009;52.584;5.932;2023-01-10T01:38:11;101217.03;;;5.39;95.77
74529;BME280;63009;52.584;5.932;2023-01-10T01:40:37;101214.41;;;5.39;95.89
74529;BME280;63009;52.584;5.932;2023-01-10T01:43:04;101214.34;;;5.41;95.96
74529;BME280;63009;52.584;5.932;2023-01-10T01:45:36;101211.03;;;5.35;95.88
74529;BME280;63009;52.584;5.932;2023-01-10T01:50:49;101224.94;;;5.38;95.30
74529;BME280;63009;52.584;5.932;2023-01-10T01:53:21;101209.53;;;5.27;95.47
74529;BME280;63009;52.584;5.932;2023-01-10T01:55:47;101228.41;;;5.38;95.63
74529;BME280;63009;52.584;5.932;2023-01-10T01:58:17;101218.09;;;5.32;95.71
74529;BME280;63009;52.584;5.932;2023-01-10T02:00:45;101236.88;;;5.46;96.30
74529;BME280;63009;52.584;5.932;2023-01-10T02:03:11;101249.19;;;5.44;96.80
74529;BME280;63009;52.584;5.932;2023-01-10T02:05:38;101253.56;;;5.44;97.26
74529;BME280;63009;52.584;5.932;2023-01-10T02:08:05;101250.78;;;5.48;97.07
74529;BME280;63009;52.584;5.932;2023-01-10T02:10:52;101262.00;;;5.53;97.92
74529;BME280;63009;52.584;5.932;2023-01-10T02:13:22;101262.81;;;5.55;98.76
74529;BME280;63009;52.584;5.932;2023-01-10T02:15:48;101268.91;;;5.56;98.72
74529;BME280;63009;52.584;5.932;2023-01-10T02:18:14;101258.53;;;5.53;98.75
74529;BME280;63009;52.584;5.932;2023-01-10T02:20:54;101255.00;;;5.54;99.28
74529;BME280;63009;52.584;5.932;2023-01-10T02:23:55;101264.75;;;5.49;99.51
74529;BME280;63009;52.584;5.932;2023-01-10T02:34:49;101271.69;;;5.51;100.00
74529;BME280;63009;52.584;5.932;2023-01-10T02:37:31;101256.72;;;5.55;100.00
74529;BME280;63009;52.584;5.932;2023-01-10T02:40:06;101254.25;;;5.49;100.00
74529;BME280;63009;52.584;5.932;2023-01-10T02:45:29;101280.38;;;5.53;100.00
74529;BME280;63009;52.584;5.932;2023-01-10T02:47:57;101280.16;;;5.59;100.00
74529;BME280;63009;52.584;5.932;2023-01-10T02:50:42;101276.78;;;5.56;100.00
74529;BME280;63009;52.584;5.932;2023-01-10T03:01:52;101275.63;;;5.36;100.00
74529;BME280;63009;52.584;5.932;2023-01-10T03:04:33;101280.72;;;5.41;100.00
74529;BME280;63009;52.584;5.932;2023-01-10T03:07:27;101293.69;;;5.46;100.00
74529;BME280;63009;52.584;5.932;2023-01-10T03:10:02;101289.34;;;5.45;100.00
74529;BME280;63009;52.584;5.932;2023-01-10T03:15:18;101310.50;;;5.39;100.00
74529;BME280;63009;52.584;5.932;2023-01-10T03:17:49;101278.72;;;5.21;100.00
74529;BME280;63009;52.584;5.932;2023-01-10T03:20:18;101308.00;;;5.35;100.00
74529;BME280;63009;52.584;5.932;2023-01-10T03:22:46;101289.00;;;5.27;100.00
74529;BME280;63009;52.584;5.932;2023-01-10T03:25:13;101314.91;;;5.38;100.00
74529;BME280;63009;52.584;5.932;2023-01-10T03:27:54;101322.75;;;5.38;100.00
74529;BME280;63009;52.584;5.932;2023-01-10T03:32:59;101318.13;;;5.46;100.00
74529;BME280;63009;52.584;5.932;2023-01-10T03:35:41;101337.38;;;5.45;100.00
74529;BME280;63009;52.584;5.932;2023-01-10T03:38:19;101326.28;;;5.37;100.00
74529;BME280;63009;52.584;5.932;2023-01-10T03:41:06;101340.09;;;5.42;100.00
74529;BME280;63009;52.584;5.932;2023-01-10T03:43:43;101331.44;;;5.40;100.00
74529;BME280;63009;52.584;5.932;2023-01-10T03:46:45;101346.13;;;5.46;100.00
74529;BME280;63009;52.584;5.932;2023-01-10T03:49:14;101333.91;;;5.45;100.00
74529;BME280;63009;52.584;5.932;2023-01-10T03:51:40;101330.38;;;5.46;100.00
74529;BME280;63009;52.584;5.932;2023-01-10T03:54:07;101344.94;;;5.56;100.00
74529;BME280;63009;52.584;5.932;2023-01-10T03:56:43;101354.63;;;5.54;100.00
74529;BME280;63009;52.584;5.932;2023-01-10T03:59:08;101352.81;;;5.56;100.00
74529;BME280;63009;52.584;5.932;2023-01-10T04:01:34;101365.66;;;5.65;100.00
74529;BME280;63009;52.584;5.932;2023-01-10T04:03:59;101360.47;;;5.63;100.00
74529;BME280;63009;52.584;5.932;2023-01-10T04:06:24;101348.44;;;5.56;100.00
74529;BME280;63009;52.584;5.932;2023-01-10T04:08:50;101381.34;;;5.66;100.00
74529;BME280;63009;52.584;5.932;2023-01-10T04:11:15;101374.38;;;5.65;100.00
74529;BME280;63009;52.584;5.932;2023-01-10T04:13:40;101379.59;;;5.67;100.00
74529;BME280;63009;52.584;5.932;2023-01-10T04:16:07;101352.97;;;5.51;100.00
74529;BME280;63009;52.584;5.932;2023-01-10T04:18:32;101374.44;;;5.62;100.00
74529;BME280;63009;52.584;5.932;2023-01-10T04:20:57;101370.06;;;5.64;100.00
74529;BME280;63009;52.584;5.932;2023-01-10T04:23:22;101374.28;;;5.69;100.00
74529;BME280;63009;52.584;5.932;2023-01-10T04:25:48;101385.63;;;5.69;100.00
74529;BME280;63009;52.584;5.932;2023-01-10T04:28:13;101374.34;;;5.67;100.00
74529;BME280;63009;52.584;5.932;2023-01-10T04:30:38;101386.44;;;5.71;100.00
74529;BME280;63009;52.584;5.932;2023-01-10T04:33:03;101390.97;;;5.66;100.00
74529;BME280;63009;52.584;5.932;2023-01-10T04:35:29;101393.66;;;5.63;100.00
74529;BME280;63009;52.584;5.932;2023-01-10T04:37:54;101397.19;;;5.62;100.00
74529;BME280;63009;52.584;5.932;2023-01-10T04:40:19;101411.16;;;5.62;100.00
74529;BME280;63009;52.584;5.932;2023-01-10T04:42:47;101399.06;;;5.58;100.00
74529;BME280;63009;52.584;5.932;2023-01-10T04:45:12;101406.81;;;5.61;100.00
74529;BME280;63009;52.584;5.932;2023-01-10T04:47:41;101412.97;;;5.60;100.00
74529;BME280;63009;52.584;5.932;2023-01-10T04:50:07;101397.53;;;5.51;100.00
74529;BME280;63009;52.584;5.932;2023-01-10T04:52:33;101415.75;;;5.56;100.00
74529;BME280;63009;52.584;5.932;2023-01-10T04:54:58;101409.50;;;5.60;100.00
74529;BME280;63009;52.584;5.932;2023-01-10T04:57:23;101424.50;;;5.55;100.00
74529;BME280;63009;52.584;5.932;2023-01-10T04:59:48;101413.22;;;5.53;100.00
74529;BME280;63009;52.584;5.932;2023-01-10T05:02:14;101434.03;;;5.57;100.00
74529;BME280;63009;52.584;5.932;2023-01-10T05:04:40;101417.06;;;5.40;100.00
74529;BME280;63009;52.584;5.932;2023-01-10T05:07:05;101446.34;;;5.55;100.00
74529;BME280;63009;52.584;5.932;2023-01-10T05:09:30;101431.59;;;5.51;100.00
74529;BME280;63009;52.584;5.932;2023-01-10T05:11:55;101435.19;;;5.47;100.00
74529;BME280;63009;52.584;5.932;2023-01-10T05:14:21;101447.09;;;5.59;100.00
74529;BME280;63009;52.584;5.932;2023-01-10T05:16:46;101452.41;;;5.57;100.00
74529;BME280;63009;52.584;5.932;2023-01-10T05:19:11;101435.34;;;5.43;100.00
74529;BME280;63009;52.584;5.932;2023-01-10T05:21:37;101463.69;;;5.59;100.00
74529;BME280;63009;52.584;5.932;2023-01-10T05:24:02;101468.84;;;5.62;100.00
74529;BME280;63009;52.584;5.932;2023-01-10T05:26:27;101448.91;;;5.57;100.00
74529;BME280;63009;52.584;5.932;2023-01-10T05:28:53;101462.06;;;5.55;100.00
74529;BME280;63009;52.584;5.932;2023-01-10T05:31:18;101464.56;;;5.60;100.00
74529;BME280;63009;52.584;5.932;2023-01-10T05:33:45;101460.22;;;5.59;100.00
74529;BME280;63009;52.584;5.932;2023-01-10T05:36:10;101463.78;;;5.56;100.00
74529;BME280;63009;52.584;5.932;2023-01-10T05:38:36;101439.66;;;5.44;100.00
74529;BME280;63009;52.584;5.932;2023-01-10T05:41:01;101461.16;;;5.56;100.00
74529;BME280;63009;52.584;5.932;2023-01-10T05:43:27;101453.41;;;5.53;100.00
74529;BME280;63009;52.584;5.932;2023-01-10T05:45:52;101454.22;;;5.55;100.00
74529;BME280;63009;52.584;5.932;2023-01-10T05:48:18;101460.50;;;5.48;100.00
74529;BME280;63009;52.584;5.932;2023-01-10T05:50:44;101466.47;;;5.55;100.00
74529;BME280;63009;52.584;5.932;2023-01-10T05:53:09;101466.59;;;5.50;100.00
74529;BME280;63009;52.584;5.932;2023-01-10T05:55:34;101468.22;;;5.54;100.00
74529;BME280;63009;52.584;5.932;2023-01-10T05:58:00;101463.97;;;5.50;100.00
74529;BME280;63009;52.584;5.932;2023-01-10T06:00:25;101482.19;;;5.55;100.00
74529;BME280;63009;52.584;5.932;2023-01-10T06:02:55;101494.41;;;5.56;100.00
74529;BME280;63009;52.584;5.932;2023-01-10T06:05:22;101479.47;;;5.58;100.00
74529;BME280;63009;52.584;5.932;2023-01-10T06:07:47;101469.16;;;5.52;100.00
74529;BME280;63009;52.584;5.932;2023-01-10T06:10:13;101456.53;;;5.35;100.00
74529;BME280;63009;52.584;5.932;2023-01-10T06:12:39;101496.47;;;5.43;100.00
74529;BME280;63009;52.584;5.932;2023-01-10T06:15:05;101500.91;;;5.41;100.00
74529;BME280;63009;52.584;5.932;2023-01-10T06:17:31;101493.13;;;5.38;100.00
74529;BME280;63009;52.584;5.932;2023-01-10T06:19:56;101495.13;;;5.28;100.00
74529;BME280;63009;52.584;5.932;2023-01-10T06:22:21;101512.44;;;5.35;100.00
74529;BME280;63009;52.584;5.932;2023-01-10T06:24:47;101517.13;;;5.23;100.00
74529;BME280;63009;52.584;5.932;2023-01-10T06:27:12;101527.34;;;5.32;100.00
74529;BME280;63009;52.584;5.932;2023-01-10T06:29:37;101518.78;;;5.25;100.00
74529;BME280;63009;52.584;5.932;2023-01-10T06:32:02;101534.25;;;5.34;100.00
74529;BME280;63009;52.584;5.932;2023-01-10T06:34:28;101527.28;;;5.35;100.00
74529;BME280;63009;52.584;5.932;2023-01-10T06:36:53;101546.28;;;5.43;100.00
74529;BME280;63009;52.584;5.932;2023-01-10T06:39:18;101542.03;;;5.39;100.00
74529;BME280;63009;52.584;5.932;2023-01-10T06:41:43;101547.41;;;5.33;100.00
74529;BME280;63009;52.584;5.932;2023-01-10T06:44:09;101542.13;;;5.34;100.00
74529;BME280;63009;52.584;5.932;2023-01-10T06:46:34;101553.50;;;5.35;100.00
74529;BME280;63009;52.584;5.932;2023-01-10T06:48:59;101537.78;;;5.35;100.00
74529;BME280;63009;52.584;5.932;2023-01-10T06:51:25;101550.94;;;5.32;100.00
74529;BME280;63009;52.584;5.932;2023-01-10T06:53:50;101558.06;;;5.27;100.00
74529;BME280;63009;52.584;5.932;2023-01-10T06:56:15;101558.09;;;5.25;100.00
74529;BME280;63009;52.584;5.932;2023-01-10T06:58:40;101563.47;;;5.19;100.00
74529;BME280;63009;52.584;5.932;2023-01-10T07:01:11;101568.75;;;5.18;100.00
74529;BME280;63009;52.584;5.932;2023-01-10T07:03:37;101583.69;;;5.14;100.00
74529;BME280;63009;52.584;5.932;2023-01-10T07:06:04;101575.81;;;5.16;100.00
74529;BME280;63009;52.584;5.932;2023-01-10T07:08:34;101565.63;;;5.03;100.00
74529;BME280;63009;52.584;5.932;2023-01-10T07:10:59;101577.94;;;5.00;100.00
74529;BME280;63009;52.584;5.932;2023-01-10T07:13:24;101580.56;;;5.00;100.00
74529;BME280;63009;52.584;5.932;2023-01-10T07:15:50;101568.69;;;4.85;100.00
74529;BME280;63009;52.584;5.932;2023-01-10T07:18:15;101586.06;;;4.88;100.00
74529;BME280;63009;52.584;5.932;2023-01-10T07:20:41;101584.19;;;4.94;100.00
74529;BME280;63009;52.584;5.932;2023-01-10T07:23:07;101584.97;;;4.98;100.00
74529;BME280;63009;52.584;5.932;2023-01-10T07:25:33;101583.16;;;5.00;100.00
74529;BME280;63009;52.584;5.932;2023-01-10T07:27:58;101610.06;;;5.06;100.00
74529;BME280;63009;52.584;5.932;2023-01-10T07:30:24;101603.09;;;5.07;100.00
74529;BME280;63009;52.584;5.932;2023-01-10T07:32:54;101602.22;;;5.06;100.00
74529;BME280;63009;52.584;5.932;2023-01-10T07:35:20;101612.56;;;5.13;100.00
74529;BME280;63009;52.584;5.932;2023-01-10T07:37:45;101593.66;;;5.00;100.00
74529;BME280;63009;52.584;5.932;2023-01-10T07:40:11;101616.03;;;5.13;100.00
74529;BME280;63009;52.584;5.932;2023-01-10T07:42:36;101626.66;;;5.09;100.00
74529;BME280;63009;52.584;5.932;2023-01-10T07:45:01;101611.75;;;5.11;100.00
74529;BME280;63009;52.584;5.932;2023-01-10T07:47:27;101624.47;;;5.26;100.00
74529;BME280;63009;52.584;5.932;2023-01-10T07:49:52;101616.59;;;5.27;100.00
74529;BME280;63009;52.584;5.932;2023-01-10T07:52:17;101626.25;;;5.25;100.00
74529;BME280;63009;52.584;5.932;2023-01-10T07:54:43;101620.91;;;5.28;100.00
74529;BME280;63009;52.584;5.932;2023-01-10T07:57:08;101646.81;;;5.42;100.00
74529;BME280;63009;52.584;5.932;2023-01-10T07:59:33;101647.69;;;5.41;100.00
74529;BME280;63009;52.584;5.932;2023-01-10T08:01:58;101649.38;;;5.44;100.00
74529;BME280;63009;52.584;5.932;2023-01-10T08:04:24;101648.66;;;5.39;100.00
74529;BME280;63009;52.584;5.932;2023-01-10T08:06:49;101648.59;;;5.40;100.00
74529;BME280;63009;52.584;5.932;2023-01-10T08:09:15;101664.38;;;5.39;100.00
74529;BME280;63009;52.584;5.932;2023-01-10T08:11:40;101622.81;;;5.23;100.00
74529;BME280;63009;52.584;5.932;2023-01-10T08:14:06;101654.78;;;5.38;100.00
74529;BME280;63009;52.584;5.932;2023-01-10T08:16:31;101662.53;;;5.42;100.00
74529;BME280;63009;52.584;5.932;2023-01-10T08:18:58;101658.19;;;5.41;100.00
74529;BME280;63009;52.584;5.932;2023-01-10T08:21:23;101651.06;;;5.46;100.00
74529;BME280;63009;52.584;5.932;2023-01-10T08:23:48;101651.91;;;5.47;100.00
74529;BME280;63009;52.584;5.932;2023-01-10T08:26:16;101646.72;;;5.45;100.00
74529;BME280;63009;52.584;5.932;2023-01-10T08:28:41;101646.72;;;5.45;100.00
74529;BME280;63009;52.584;5.932;2023-01-10T08:31:07;101663.91;;;5.57;100.00
74529;BME280;63009;52.584;5.932;2023-01-10T08:33:33;101677.06;;;5.55;100.00
74529;BME280;63009;52.584;5.932;2023-01-10T08:35:58;101677.00;;;5.58;100.00
74529;BME280;63009;52.584;5.932;2023-01-10T08:38:23;101670.94;;;5.56;100.00
74529;BME280;63009;52.584;5.932;2023-01-10T08:40:49;101673.50;;;5.58;100.00
74529;BME280;63009;52.584;5.932;2023-01-10T08:43:14;101674.31;;;5.60;100.00
74529;BME280;63009;52.584;5.932;2023-01-10T08:45:39;101681.94;;;5.71;100.00
74529;BME280;63009;52.584;5.932;2023-01-10T08:48:05;101676.69;;;5.71;100.00
74529;BME280;63009;52.584;5.932;2023-01-10T08:50:33;101659.44;;;5.60;100.00
74529;BME280;63009;52.584;5.932;2023-01-10T08:52:59;101680.78;;;5.82;100.00
74529;BME280;63009;52.584;5.932;2023-01-10T08:55:25;101672.84;;;5.84;100.00
74529;BME280;63009;52.584;5.932;2023-01-10T08:57:50;101671.16;;;5.83;100.00
74529;BME280;63009;52.584;5.932;2023-01-10T09:00:16;101672.91;;;5.82;100.00
74529;BME280;63009;52.584;5.932;2023-01-10T09:02:41;101665.72;;;5.89;100.00
74529;BME280;63009;52.584;5.932;2023-01-10T09:05:07;101673.53;;;5.93;100.00
74529;BME280;63009;52.584;5.932;2023-01-10T09:07:33;101670.88;;;5.95;100.00
74529;BME280;63009;52.584;5.932;2023-01-10T09:09:58;101660.97;;;6.05;100.00
74529;BME280;63009;52.584;5.932;2023-01-10T09:12:24;101668.94;;;6.02;100.00
74529;BME280;63009;52.584;5.932;2023-01-10T09:15:08;101659.34;;;6.01;100.00
74529;BME280;63009;52.584;5.932;2023-01-10T09:17:33;101667.97;;;6.06;100.00
74529;BME280;63009;52.584;5.932;2023-01-10T09:19:59;101661.28;;;5.94;100.00
74529;BME280;63009;52.584;5.932;2023-01-10T09:22:24;101682.91;;;6.02;100.00
74529;BME280;63009;52.584;5.932;2023-01-10T09:24:49;101688.91;;;6.07;100.00
74529;BME280;63009;52.584;5.932;2023-01-10T09:27:14;101653.34;;;5.95;100.00
74529;BME280;63009;52.584;5.932;2023-01-10T09:29:40;101668.75;;;6.09;100.00
74529;BME280;63009;52.584;5.932;2023-01-10T09:32:05;101681.00;;;6.09;100.00
74529;BME280;63009;52.584;5.932;2023-01-10T09:34:30;101670.53;;;6.07;100.00
74529;BME280;63009;52.584;5.932;2023-01-10T09:36:56;101679.50;;;5.99;100.00
74529;BME280;63009;52.584;5.932;2023-01-10T09:39:21;101668.94;;;6.02;99.94
74529;BME280;63009;52.584;5.932;2023-01-10T09:44:50;101680.09;;;6.10;100.00
74529;BME280;63009;52.584;5.932;2023-01-10T09:50:10;101676.56;;;6.11;99.18
74529;BME280;63009;52.584;5.932;2023-01-10T09:52:43;101681.72;;;6.14;98.08
74529;BME280;63009;52.584;5.932;2023-01-10T09:55:37;101674.91;;;6.08;98.83
74529;BME280;63009;52.584;5.932;2023-01-10T09:58:11;101678.38;;;6.09;98.46
74529;BME280;63009;52.584;5.932;2023-01-10T10:00:41;101674.06;;;6.06;97.73
74529;BME280;63009;52.584;5.932;2023-01-10T10:05:45;101664.53;;;6.02;98.52
74529;BME280;63009;52.584;5.932;2023-01-10T10:08:15;101668.19;;;5.97;97.54
74529;BME280;63009;52.584;5.932;2023-01-10T10:11:04;101669.00;;;5.99;98.12
74529;BME280;63009;52.584;5.932;2023-01-10T10:16:31;101661.13;;;5.99;98.39
74529;BME280;63009;52.584;5.932;2023-01-10T10:22:11;101648.06;;;5.97;97.37
74529;BME280;63009;52.584;5.932;2023-01-10T10:25:07;101645.53;;;5.94;96.82
74529;BME280;63009;52.584;5.932;2023-01-10T10:28:08;101649.06;;;5.93;96.81
74529;BME280;63009;52.584;5.932;2023-01-10T10:30:45;101653.31;;;5.97;96.89
74529;BME280;63009;52.584;5.932;2023-01-10T10:33:33;101651.72;;;5.90;97.60
74529;BME280;63009;52.584;5.932;2023-01-10T10:36:11;101638.63;;;5.90;97.02
74529;BME280;63009;52.584;5.932;2023-01-10T10:38:43;101640.28;;;5.94;97.34
74529;BME280;63009;52.584;5.932;2023-01-10T10:41:51;101634.91;;;5.99;97.67
74529;BME280;63009;52.584;5.932;2023-01-10T10:44:36;101623.47;;;6.01;97.06
74529;BME280;63009;52.584;5.932;2023-01-10T11:26:06;101598.78;;;6.08;96.12
74529;BME280;63009;52.584;5.932;2023-01-10T11:28:32;101580.38;;;6.10;95.64
74529;BME280;63009;52.584;5.932;2023-01-10T11:30:59;101587.38;;;6.09;95.30
74529;BME280;63009;52.584;5.932;2023-01-10T11:33:28;101578.56;;;6.12;95.88
74529;BME280;63009;52.584;5.932;2023-01-10T11:36:04;101574.13;;;6.14;94.42
74529;BME280;63009;52.584;5.932;2023-01-10T11:38:30;101584.50;;;6.18;94.76
74529;BME280;63009;52.584;5.932;2023-01-10T11:41:03;101587.16;;;6.17;94.81
74529;BME280;63009;52.584;5.932;2023-01-10T11:43:38;101577.63;;;6.14;94.71
74529;BME280;63009;52.584;5.932;2023-01-10T11:51:20;101584.84;;;6.06;94.86
74529;BME280;63009;52.584;5.932;2023-01-10T11:53:48;101583.16;;;6.04;94.35
74529;BME280;63009;52.584;5.932;2023-01-10T11:56:24;101583.91;;;6.09;94.96
74529;BME280;63009;52.584;5.932;2023-01-10T11:58:51;101587.16;;;6.17;94.44
74529;BME280;63009;52.584;5.932;2023-01-10T12:01:25;101579.50;;;6.09;94.55
74529;BME280;63009;52.584;5.932;2023-01-10T12:03:52;101574.47;;;6.02;94.31
74529;BME280;63009;52.584;5.932;2023-01-10T12:06:18;101580.34;;;6.11;94.41
74529;BME280;63009;52.584;5.932;2023-01-10T12:08:44;101569.97;;;6.05;94.46
74529;BME280;63009;52.584;5.932;2023-01-10T12:13:49;101567.34;;;6.07;94.17
74529;BME280;63009;52.584;5.932;2023-01-10T12:18:44;101548.38;;;5.97;93.69
74529;BME280;63009;52.584;5.932;2023-01-10T12:21:12;101535.38;;;5.92;92.65
74529;BME280;63009;52.584;5.932;2023-01-10T12:23:39;101550.03;;;6.00;93.22
74529;BME280;63009;52.584;5.932;2023-01-10T12:26:11;101549.03;;;6.04;93.30
74529;BME280;63009;52.584;5.932;2023-01-10T12:28:41;101542.06;;;6.03;92.82
74529;BME280;63009;52.584;5.932;2023-01-10T12:31:14;101529.19;;;5.95;93.62
74529;BME280;63009;52.584;5.932;2023-01-10T12:33:45;101528.44;;;5.91;92.61
74529;BME280;63009;52.584;5.932;2023-01-10T12:39:22;101519.66;;;5.92;92.57
74529;BME280;63009;52.584;5.932;2023-01-10T12:45:32;101516.19;;;5.90;92.36
74529;BME280;63009;52.584;5.932;2023-01-10T12:50:42;101518.69;;;5.95;92.08
74529;BME280;63009;52.584;5.932;2023-01-10T12:55:54;101518.75;;;5.93;92.40
74529;BME280;63009;52.584;5.932;2023-01-10T12:58:26;101513.44;;;5.95;92.74
74529;BME280;63009;52.584;5.932;2023-01-10T13:00:58;101503.97;;;5.88;92.56
74529;BME280;63009;52.584;5.932;2023-01-10T13:03:28;101502.94;;;5.95;92.36
74529;BME280;63009;52.584;5.932;2023-01-10T13:05:56;101496.75;;;5.98;91.78
74529;BME280;63009;52.584;5.932;2023-01-10T13:08:25;101494.03;;;6.01;91.93
74529;BME280;63009;52.584;5.932;2023-01-10T13:10:53;101482.69;;;6.00;91.85
74529;BME280;63009;52.584;5.932;2023-01-10T13:13:39;101487.84;;;6.03;91.73
74529;BME280;63009;52.584;5.932;2023-01-10T13:16:23;101485.31;;;6.00;92.39
74529;BME280;63009;52.584;5.932;2023-01-10T13:21:35;101474.72;;;6.03;91.72
74529;BME280;63009;52.584;5.932;2023-01-10T13:24:03;101467.69;;;6.04;91.49
74529;BME280;63009;52.584;5.932;2023-01-10T13:29:21;101447.63;;;6.03;91.54
74529;BME280;63009;52.584;5.932;2023-01-10T13:31:48;101449.13;;;6.11;90.83
74529;BME280;63009;52.584;5.932;2023-01-10T13:34:17;101443.16;;;6.06;91.48
74529;BME280;63009;52.584;5.932;2023-01-10T13:36:55;101435.19;;;6.09;91.34
74529;BME280;63009;52.584;5.932;2023-01-10T13:39:32;101416.22;;;6.00;91.38
74529;BME280;63009;52.584;5.932;2023-01-10T14:03:54;101376.56;;;6.10;90.97
74529;BME280;63009;52.584;5.932;2023-01-10T14:09:02;101367.88;;;6.08;90.63
74529;BME280;63009;52.584;5.932;2023-01-10T14:14:29;101369.38;;;6.15;90.85
74529;BME280;63009;52.584;5.932;2023-01-10T14:19:41;101339.41;;;6.22;90.17
74529;BME280;63009;52.584;5.932;2023-01-10T14:22:23;101342.97;;;6.21;89.56
74529;BME280;63009;52.584;5.932;2023-01-10T14:24:50;101326.44;;;6.18;89.75
74529;BME280;63009;52.584;5.932;2023-01-10T14:27:18;101341.94;;;6.25;89.43
74529;BME280;63009;52.584;5.932;2023-01-10T14:29:47;101343.72;;;6.25;89.27
74529;BME280;63009;52.584;5.932;2023-01-10T14:32:36;101343.44;;;6.33;88.95
74529;BME280;63009;52.584;5.932;2023-01-10T14:35:07;101337.31;;;6.34;89.30
74529;BME280;63009;52.584;5.932;2023-01-10T14:37:41;101331.19;;;6.33;89.17
74529;BME280;63009;52.584;5.932;2023-01-10T14:42:47;101320.78;;;6.30;89.80
74529;BME280;63009;52.584;5.932;2023-01-10T14:45:29;101313.75;;;6.31;89.81
74529;BME280;63009;52.584;5.932;2023-01-10T14:47:55;101300.84;;;6.24;89.58
74529;BME280;63009;52.584;5.932;2023-01-10T14:50:29;101307.81;;;6.25;89.12
74529;BME280;63009;52.584;5.932;2023-01-10T14:52:59;101305.81;;;6.34;89.95
74529;BME280;63009;52.584;5.932;2023-01-10T14:55:25;101298.81;;;6.33;89.58
74529;BME280;63009;52.584;5.932;2023-01-10T14:57:55;101308.28;;;6.38;89.58
74529;BME280;63009;52.584;5.932;2023-01-10T15:00:27;101284.94;;;6.29;90.26
74529;BME280;63009;52.584;5.932;2023-01-10T15:02:53;101283.84;;;6.36;89.94
74529;BME280;63009;52.584;5.932;2023-01-10T15:05:23;101271.63;;;6.35;90.77
74529;BME280;63009;52.584;5.932;2023-01-10T15:07:53;101279.44;;;6.37;90.76
74529;BME280;63009;52.584;5.932;2023-01-10T15:10:24;101276.03;;;6.35;91.10
74529;BME280;63009;52.584;5.932;2023-01-10T15:12:53;101263.84;;;6.32;91.45
74529;BME280;63009;52.584;5.932;2023-01-10T15:15:30;101257.78;;;6.30;91.13
74529;BME280;63009;52.584;5.932;2023-01-10T15:17:58;101250.03;;;6.27;91.70
74529;BME280;63009;52.584;5.932;2023-01-10T15:20:24;101238.78;;;6.23;91.42
74529;BME280;63009;52.584;5.932;2023-01-10T15:22:55;101248.13;;;6.31;92.17
74529;BME280;63009;52.584;5.932;2023-01-10T15:25:27;101249.97;;;6.29;92.26